createdAt,value
2023-04-18T00:00:50.703Z,17.52
2023-04-18T00:03:18.583Z,19.13
2023-04-18T00:05:48.986Z,18.10
2023-04-18T00:08:16.866Z,17.85
2023-04-18T00:10:46.123Z,18.42
2023-04-18T00:13:14.513Z,19.35
2023-04-18T00:15:43.803Z,20.60
2023-04-18T00:18:12.808Z,17.02
2023-04-18T00:20:41.076Z,17.52
2023-04-18T00:23:08.761Z,19.05
2023-04-18T00:25:37.570Z,18.50
2023-04-18T00:28:06.732Z,19.63
2023-04-18T00:30:34.467Z,18.48
2023-04-18T00:33:04.588Z,18.42
2023-04-18T00:35:32.898Z,20.08
2023-04-18T00:38:01.174Z,18.88
2023-04-18T00:40:28.842Z,20.33
2023-04-18T00:42:56.894Z,20.65
2023-04-18T00:45:27.049Z,19.25
2023-04-18T00:47:55.963Z,18.02
2023-04-18T00:50:24.550Z,17.45
2023-04-18T00:52:53.118Z,20.77
2023-04-18T00:55:21.247Z,18.80
2023-04-18T00:57:49.267Z,19.67
2023-04-18T01:00:17.510Z,18.55
2023-04-18T01:02:47.842Z,19.00
2023-04-18T01:05:15.881Z,18.45
2023-04-18T01:07:44.206Z,18.65
2023-04-18T01:10:12.670Z,17.33
2023-04-18T01:12:40.670Z,18.65
2023-04-18T01:15:09.653Z,19.00
2023-04-18T01:17:38.418Z,18.50
2023-04-18T01:20:09.543Z,18.77
2023-04-18T01:22:37.281Z,17.58
2023-04-18T01:25:11.906Z,18.17
2023-04-18T01:27:39.548Z,20.85
2023-04-18T01:30:08.999Z,19.70
2023-04-18T01:32:36.691Z,19.33
2023-04-18T01:35:05.321Z,15.73
2023-04-18T01:37:33.199Z,19.27
2023-04-18T01:40:00.873Z,21.60
2023-04-18T01:42:31.351Z,19.70
2023-04-18T01:44:59.024Z,16.00
2023-04-18T01:47:27.916Z,15.45
2023-04-18T01:49:55.987Z,17.20
2023-04-18T01:52:23.971Z,17.48
2023-04-18T01:54:51.774Z,17.08
2023-04-18T01:57:19.532Z,17.25
2023-04-18T01:59:48.601Z,17.58
2023-04-18T02:02:16.375Z,16.60
2023-04-18T02:04:44.523Z,16.98
2023-04-18T02:07:12.254Z,18.77
2023-04-18T02:09:40.224Z,18.20
2023-04-18T02:12:08.739Z,18.25
2023-04-18T02:14:37.515Z,19.95
2023-04-18T02:17:06.566Z,16.55
2023-04-18T02:19:34.584Z,14.80
2023-04-18T02:22:02.266Z,17.75
2023-04-18T02:24:30.229Z,16.30
2023-04-18T02:26:58.187Z,15.93
2023-04-18T02:29:26.455Z,17.17
2023-04-18T02:31:54.090Z,18.70
2023-04-18T02:34:23.094Z,14.70
2023-04-18T02:36:51.274Z,15.82
2023-04-18T02:39:18.958Z,17.73
2023-04-18T02:41:46.956Z,14.95
2023-04-18T02:44:14.845Z,15.88
2023-04-18T02:46:42.709Z,15.75
2023-04-18T02:49:11.486Z,15.07
2023-04-18T02:51:40.911Z,16.58
2023-04-18T02:54:08.652Z,18.02
2023-04-18T02:56:40.238Z,18.77
2023-04-18T02:59:08.087Z,14.93
2023-04-18T03:01:36.151Z,15.70
2023-04-18T03:04:03.887Z,14.48
2023-04-18T03:06:32.113Z,16.38
2023-04-18T03:09:01.164Z,16.65
2023-04-18T03:11:28.827Z,18.50
2023-04-18T03:13:56.934Z,16.48
2023-04-18T03:16:24.619Z,16.25
2023-04-18T03:18:52.627Z,16.55
2023-04-18T03:21:20.298Z,15.82
2023-04-18T03:23:48.267Z,17.40
2023-04-18T03:26:17.310Z,19.08
2023-04-18T03:28:45.379Z,15.57
2023-04-18T03:31:13.124Z,18.83
2023-04-18T03:33:42.260Z,15.52
2023-04-18T03:36:10.570Z,16.13
2023-04-18T03:38:40.547Z,19.02
2023-04-18T03:41:08.246Z,18.33
2023-04-18T03:43:37.751Z,17.55
2023-04-18T03:46:06.016Z,18.02
2023-04-18T03:48:37.372Z,15.95
2023-04-18T03:51:07.295Z,16.50
2023-04-18T03:53:35.674Z,18.13
2023-04-18T03:56:03.487Z,17.38
2023-04-18T03:58:31.654Z,19.55
2023-04-18T04:01:01.294Z,16.85
2023-04-18T04:03:29.154Z,18.27
2023-04-18T04:05:57.975Z,16.90
2023-04-18T04:08:27.673Z,18.05
2023-04-18T04:10:55.900Z,17.10
2023-04-18T04:13:23.913Z,18.25
2023-04-18T04:15:52.663Z,17.23
2023-04-18T04:18:25.390Z,22.77
2023-04-18T04:20:53.063Z,16.15
2023-04-18T04:23:20.958Z,20.98
2023-04-18T04:25:48.934Z,18.15
2023-04-18T04:28:17.103Z,20.83
2023-04-18T04:30:44.865Z,21.95
2023-04-18T04:33:12.678Z,18.40
2023-04-18T04:35:41.750Z,19.75
2023-04-18T04:38:09.764Z,21.23
2023-04-18T04:40:37.404Z,18.83
2023-04-18T04:43:05.540Z,19.92
2023-04-18T04:45:33.390Z,18.20
2023-04-18T04:48:01.506Z,21.02
2023-04-18T04:50:29.424Z,23.10
2023-04-18T04:52:58.791Z,18.02
2023-04-18T04:55:26.660Z,18.35
2023-04-18T04:57:55.576Z,19.42
2023-04-18T05:00:23.704Z,20.95
2023-04-18T05:02:53.306Z,19.20
2023-04-18T05:05:21.637Z,17.73
2023-04-18T05:07:49.305Z,22.10
2023-04-18T05:10:18.316Z,18.02
2023-04-18T05:12:46.248Z,18.85
2023-04-18T05:15:16.866Z,20.45
2023-04-18T05:20:12.538Z,19.60
2023-04-18T05:22:40.726Z,17.27
2023-04-18T05:25:09.186Z,18.35
2023-04-18T05:27:38.562Z,18.73
2023-04-18T05:30:07.478Z,19.30
2023-04-18T05:32:35.305Z,20.90
2023-04-18T05:35:03.188Z,19.60
2023-04-18T05:37:31.323Z,19.23
2023-04-18T05:40:00.725Z,17.88
2023-04-18T05:42:28.833Z,21.08
2023-04-18T05:44:58.280Z,22.23
2023-04-18T05:47:28.396Z,19.73
2023-04-18T05:49:57.304Z,20.38
2023-04-18T05:52:26.008Z,21.80
2023-04-18T05:54:54.301Z,17.48
2023-04-18T05:57:21.943Z,20.30
2023-04-18T05:59:49.662Z,20.20
2023-04-18T06:02:19.218Z,18.05
2023-04-18T06:04:48.642Z,19.15
2023-04-18T06:07:16.931Z,20.05
2023-04-18T06:09:44.587Z,18.50
2023-04-18T06:12:12.302Z,19.50
2023-04-18T06:14:40.239Z,21.40
2023-04-18T06:17:10.053Z,20.42
2023-04-18T06:19:39.740Z,16.65
2023-04-18T06:22:07.429Z,18.60
2023-04-18T06:24:35.089Z,19.95
2023-04-18T06:27:03.465Z,20.30
2023-04-18T06:29:33.136Z,21.00
2023-04-18T06:32:00.892Z,19.83
2023-04-18T06:34:28.990Z,17.80
2023-04-18T06:36:58.620Z,17.65
2023-04-18T06:39:27.839Z,21.70
2023-04-18T06:41:55.461Z,17.17
2023-04-18T06:44:23.135Z,20.63
2023-04-18T06:46:50.969Z,20.20
2023-04-18T06:49:19.748Z,18.42
2023-04-18T06:51:48.402Z,20.60
2023-04-18T06:54:17.472Z,22.67
2023-04-18T06:56:45.534Z,21.27
2023-04-18T06:59:13.288Z,18.90
2023-04-18T07:01:42.646Z,19.48
2023-04-18T07:04:10.790Z,23.10
2023-04-18T07:06:39.177Z,17.85
2023-04-18T07:09:06.833Z,19.60
2023-04-18T07:11:35.891Z,17.25
2023-04-18T07:14:03.749Z,18.40
2023-04-18T07:16:31.933Z,19.02
2023-04-18T07:18:59.620Z,17.50
2023-04-18T07:21:27.765Z,17.95
2023-04-18T07:23:55.488Z,20.85
2023-04-18T07:26:23.332Z,19.20
2023-04-18T07:28:52.371Z,27.75
2023-04-18T07:31:20.095Z,18.77
2023-04-18T07:33:48.195Z,17.02
2023-04-18T07:36:15.905Z,23.55
2023-04-18T07:38:44.814Z,16.90
2023-04-18T07:41:12.427Z,16.88
2023-04-18T07:43:40.468Z,20.23
2023-04-18T07:46:09.605Z,18.63
2023-04-18T07:48:38.286Z,16.58
2023-04-18T07:51:06.210Z,18.10
2023-04-18T07:53:33.905Z,28.02
2023-04-18T07:56:01.653Z,30.80
2023-04-18T07:58:29.376Z,20.75
2023-04-18T08:00:57.976Z,18.58
2023-04-18T08:03:27.586Z,19.25
2023-04-18T08:05:55.829Z,22.95
2023-04-18T08:08:23.885Z,18.00
2023-04-18T08:10:51.554Z,17.55
2023-04-18T08:13:19.211Z,22.55
2023-04-18T08:15:48.142Z,15.85
2023-04-18T08:18:15.815Z,15.65
2023-04-18T08:20:44.789Z,16.70
2023-04-18T08:23:13.514Z,34.50
2023-04-18T08:25:41.287Z,24.85
2023-04-18T08:28:09.551Z,20.20
2023-04-18T08:30:38.360Z,26.35
2023-04-18T08:33:06.044Z,22.58
2023-04-18T08:35:35.240Z,18.67
2023-04-18T08:38:04.332Z,19.92
2023-04-18T08:40:32.061Z,19.90
2023-04-18T08:43:04.774Z,16.38
2023-04-18T08:45:33.212Z,18.10
2023-04-18T08:48:03.402Z,16.67
2023-04-18T08:50:32.329Z,16.35
2023-04-18T08:53:01.316Z,20.55
2023-04-18T08:55:30.683Z,29.65
2023-04-18T08:57:58.502Z,18.38
2023-04-18T09:00:27.840Z,20.08
2023-04-18T09:02:57.043Z,17.98
2023-04-18T09:05:27.102Z,18.23
2023-04-18T09:07:56.081Z,15.93
2023-04-18T09:10:29.424Z,17.80
2023-04-18T09:12:59.908Z,18.23
2023-04-18T09:15:29.449Z,18.23
2023-04-18T09:17:59.783Z,18.23
2023-04-18T09:20:34.332Z,18.05
2023-04-18T09:23:04.088Z,15.50
2023-04-18T09:25:34.639Z,15.70
2023-04-18T09:28:06.541Z,23.42
2023-04-18T09:30:38.180Z,19.42
2023-04-18T09:33:09.697Z,14.02
2023-04-18T09:35:38.180Z,17.35
2023-04-18T09:38:07.203Z,17.23
2023-04-18T09:40:34.907Z,14.48
2023-04-18T09:43:17.995Z,22.05
2023-04-18T09:45:47.948Z,18.92
2023-04-18T09:48:18.387Z,20.42
2023-04-18T09:50:48.182Z,18.15
2023-04-18T09:53:20.955Z,18.27
2023-04-18T09:55:53.301Z,17.83
2023-04-18T09:58:23.560Z,20.73
2023-04-18T10:00:55.028Z,14.55
2023-04-18T10:03:29.774Z,14.50
2023-04-18T10:05:57.937Z,17.58
2023-04-18T10:08:26.668Z,21.02
2023-04-18T10:10:56.397Z,17.90
2023-04-18T10:13:24.519Z,19.05
2023-04-18T10:15:54.645Z,17.17
2023-04-18T10:18:24.944Z,19.10
2023-04-18T10:21:02.586Z,15.70
2023-04-18T10:23:38.708Z,17.17
2023-04-18T10:26:07.127Z,15.27
2023-04-18T10:28:58.186Z,16.27
2023-04-18T10:31:28.660Z,15.85
2023-04-18T10:36:34.779Z,21.38
2023-04-18T10:39:04.578Z,17.85
2023-04-18T10:41:33.857Z,13.73
2023-04-18T10:44:19.289Z,17.00
2023-04-18T10:47:33.662Z,17.52
2023-04-18T10:50:08.067Z,16.17
2023-04-18T10:52:36.452Z,16.13
2023-04-18T10:55:16.417Z,60.70
2023-04-18T10:57:45.820Z,17.55
2023-04-18T11:00:15.596Z,15.40
2023-04-18T11:02:50.588Z,19.02
2023-04-18T11:05:24.573Z,17.95
2023-04-18T11:07:52.886Z,18.95
2023-04-18T11:10:22.593Z,16.42
2023-04-18T11:12:51.568Z,17.30
2023-04-18T11:15:22.342Z,14.20
2023-04-18T11:17:58.515Z,16.23
2023-04-18T11:20:28.361Z,18.75
2023-04-18T11:23:00.687Z,18.93
2023-04-18T11:25:30.066Z,16.35
2023-04-18T11:28:00.662Z,19.10
2023-04-18T11:30:31.256Z,16.13
2023-04-18T11:35:28.772Z,18.50
2023-04-18T11:37:56.569Z,19.05
2023-04-18T11:40:24.760Z,16.20
2023-04-18T11:42:55.396Z,18.70
2023-04-18T11:47:51.745Z,16.23
2023-04-18T11:50:19.442Z,15.70
2023-04-18T11:52:53.017Z,17.27
2023-04-18T11:55:23.808Z,19.17
2023-04-18T11:57:53.321Z,22.38
2023-04-18T12:00:31.412Z,15.80
2023-04-18T12:03:01.941Z,15.57
2023-04-18T12:05:31.980Z,15.90
2023-04-18T12:08:08.651Z,16.55
2023-04-18T12:10:36.942Z,15.75
2023-04-18T12:13:09.116Z,18.88
2023-04-18T12:15:40.442Z,18.30
2023-04-18T12:18:09.621Z,21.58
2023-04-18T12:20:39.313Z,20.73
2023-04-18T12:23:09.233Z,22.50
2023-04-18T12:25:37.520Z,19.25
2023-04-18T12:28:16.687Z,17.60
2023-04-18T12:30:44.337Z,20.85
2023-04-18T12:33:12.474Z,16.65
2023-04-18T12:35:41.500Z,21.45
2023-04-18T12:38:10.940Z,19.25
2023-04-18T12:40:40.160Z,20.55
2023-04-18T12:43:08.851Z,19.55
2023-04-18T12:45:36.935Z,19.95
2023-04-18T12:48:05.167Z,19.83
2023-04-18T12:50:32.983Z,20.00
2023-04-18T12:53:03.318Z,18.33
2023-04-18T12:55:33.065Z,15.88
2023-04-18T12:58:01.304Z,17.07
2023-04-18T13:00:31.540Z,17.55
2023-04-18T13:03:00.048Z,17.83
2023-04-18T13:05:33.128Z,16.38
2023-04-18T13:08:15.463Z,15.98
2023-04-18T13:10:46.262Z,18.40
2023-04-18T13:13:14.784Z,14.88
2023-04-18T13:15:42.542Z,19.55
2023-04-18T13:18:10.230Z,16.42
2023-04-18T13:20:38.482Z,18.17
2023-04-18T13:23:06.156Z,16.58
2023-04-18T13:25:33.929Z,15.73
2023-04-18T13:28:03.307Z,18.40
2023-04-18T13:30:31.905Z,17.50
2023-04-18T13:32:59.747Z,17.23
2023-04-18T13:35:28.586Z,17.83
2023-04-18T13:37:56.255Z,18.35
2023-04-18T13:40:24.199Z,16.20
2023-04-18T13:42:52.289Z,16.02
2023-04-18T13:45:21.634Z,16.85
2023-04-18T13:47:49.795Z,20.52
2023-04-18T13:50:17.466Z,20.70
2023-04-18T13:52:46.170Z,13.55
2023-04-18T13:55:14.138Z,14.57
2023-04-18T13:57:42.178Z,17.70
2023-04-18T14:00:14.337Z,13.73
2023-04-18T14:02:43.695Z,12.80
2023-04-18T14:05:12.089Z,13.57
2023-04-18T14:07:39.789Z,13.52
2023-04-18T14:10:08.992Z,13.90
2023-04-18T14:12:36.648Z,14.32
2023-04-18T14:15:04.815Z,14.40
2023-04-18T14:17:32.853Z,12.60
2023-04-18T14:20:03.002Z,15.45
2023-04-18T14:22:31.045Z,14.32
2023-04-18T14:24:59.053Z,13.35
2023-04-18T14:27:27.250Z,14.10
2023-04-18T14:29:54.973Z,12.43
2023-04-18T14:32:22.910Z,15.20
2023-04-18T14:34:50.663Z,13.15
2023-04-18T14:37:19.999Z,16.08
2023-04-18T14:39:48.435Z,12.55
2023-04-18T14:42:17.057Z,14.70
2023-04-18T14:44:45.180Z,12.75
2023-04-18T14:47:12.851Z,11.65
2023-04-18T14:49:40.662Z,13.52
2023-04-18T14:52:09.794Z,12.70
2023-04-18T14:54:38.774Z,13.90
2023-04-18T14:57:08.124Z,12.95
2023-04-18T14:59:36.344Z,19.33
2023-04-18T15:02:04.083Z,14.20
2023-04-18T15:04:31.971Z,14.93
2023-04-18T15:07:00.146Z,12.10
2023-04-18T15:09:28.173Z,14.20
2023-04-18T15:11:58.137Z,15.05
2023-04-18T15:14:26.258Z,12.40
2023-04-18T15:16:54.389Z,11.75
2023-04-18T15:19:22.217Z,10.18
2023-04-18T15:21:49.876Z,10.35
2023-04-18T15:24:17.934Z,9.45
2023-04-18T15:26:45.576Z,9.60
2023-04-18T15:29:15.152Z,10.60
2023-04-18T15:31:42.882Z,11.40
2023-04-18T15:34:11.760Z,20.58
2023-04-18T15:36:39.474Z,10.98
2023-04-18T15:39:09.269Z,11.80
2023-04-18T15:41:37.903Z,11.18
2023-04-18T15:44:09.291Z,10.07
2023-04-18T15:46:38.559Z,11.68
2023-04-18T15:49:06.534Z,8.65
2023-04-18T15:51:34.279Z,11.00
2023-04-18T15:54:01.930Z,9.50
2023-04-18T15:56:33.077Z,10.10
2023-04-18T15:59:02.140Z,7.45
2023-04-18T16:01:30.188Z,7.78
2023-04-18T16:03:59.558Z,7.05
2023-04-18T16:06:27.373Z,7.70
2023-04-18T16:08:55.291Z,11.85
2023-04-18T16:11:25.998Z,11.05
2023-04-18T16:13:53.810Z,7.43
2023-04-18T16:16:21.482Z,6.10
2023-04-18T16:18:49.436Z,9.30
2023-04-18T16:21:18.781Z,8.55
2023-04-18T16:23:46.381Z,5.72
2023-04-18T16:26:14.528Z,7.72
2023-04-18T16:28:42.254Z,7.53
2023-04-18T16:31:10.324Z,6.25
2023-04-18T16:33:38.219Z,9.45
2023-04-18T16:36:07.126Z,6.22
2023-04-18T16:38:36.535Z,8.15
2023-04-18T16:41:04.240Z,5.97
2023-04-18T16:43:36.539Z,7.03
2023-04-18T16:46:04.647Z,6.38
2023-04-18T16:48:32.332Z,5.18
2023-04-18T16:51:00.563Z,7.95
2023-04-18T16:53:28.305Z,5.45
2023-04-18T16:55:57.551Z,5.55
2023-04-18T16:58:25.597Z,5.85
2023-04-18T17:00:53.650Z,7.55
2023-04-18T17:03:21.544Z,7.30
2023-04-18T17:05:49.723Z,5.40
2023-04-18T17:08:17.859Z,5.80
2023-04-18T17:10:45.836Z,6.97
2023-04-18T17:13:14.897Z,4.82
2023-04-18T17:15:43.330Z,5.45
2023-04-18T17:18:11.065Z,7.22
2023-04-18T17:20:39.092Z,6.50
2023-04-18T17:23:06.734Z,7.32
2023-04-18T17:25:34.816Z,7.50
2023-04-18T17:28:03.361Z,7.32
2023-04-18T17:30:32.680Z,8.13
2023-04-18T17:33:00.718Z,6.97
2023-04-18T17:35:28.409Z,7.47
2023-04-18T17:37:56.639Z,9.73
2023-04-18T17:40:24.579Z,6.10
2023-04-18T17:42:52.770Z,8.32
2023-04-18T17:45:21.239Z,5.45
2023-04-18T17:47:51.188Z,7.05
2023-04-18T17:50:19.539Z,6.20
2023-04-18T17:52:47.242Z,6.05
2023-04-18T17:55:16.800Z,5.43
2023-04-18T17:57:44.566Z,10.63
2023-04-18T18:00:15.046Z,7.82
2023-04-18T18:05:16.961Z,8.00
2023-04-18T18:07:47.435Z,6.10
2023-04-18T18:10:19.493Z,5.63
2023-04-18T18:12:47.157Z,11.02
2023-04-18T18:15:15.037Z,8.98
2023-04-18T18:17:43.163Z,8.45
2023-04-18T18:20:11.663Z,5.55
2023-04-18T18:22:41.058Z,8.30
2023-04-18T18:25:09.738Z,6.70
2023-04-18T18:27:37.768Z,8.20
2023-04-18T18:30:06.636Z,6.60
2023-04-18T18:32:34.969Z,6.43
2023-04-18T18:35:02.941Z,8.30
2023-04-18T18:37:30.817Z,7.55
2023-04-18T18:40:00.563Z,6.57
2023-04-18T18:42:28.198Z,9.23
2023-04-18T18:44:55.881Z,8.77
2023-04-18T18:47:23.977Z,7.13
2023-04-18T18:49:51.642Z,7.32
2023-04-18T18:52:19.334Z,6.25
2023-04-18T18:54:47.349Z,8.63
2023-04-18T18:57:16.573Z,9.77
2023-04-18T18:59:44.210Z,6.93
2023-04-18T19:02:12.595Z,6.32
2023-04-18T19:04:40.457Z,7.78
2023-04-18T19:07:08.361Z,7.63
2023-04-18T19:09:37.184Z,30.50
2023-04-18T19:12:06.097Z,8.85
2023-04-18T19:14:35.200Z,8.07
2023-04-18T19:17:03.466Z,10.13
2023-04-18T19:19:31.904Z,8.32
2023-04-18T19:22:00.977Z,6.40
2023-04-18T19:24:28.623Z,9.10
2023-04-18T19:26:56.731Z,8.57
2023-04-18T19:29:24.454Z,9.85
2023-04-18T19:31:53.725Z,8.20
2023-04-18T19:34:22.409Z,8.02
2023-04-18T19:36:50.098Z,6.85
2023-04-18T19:39:18.445Z,10.15
2023-04-18T19:41:46.838Z,10.18
2023-04-18T19:44:14.840Z,5.70
2023-04-18T19:46:42.488Z,10.30
2023-04-18T19:49:11.597Z,13.88
2023-04-18T19:51:40.295Z,10.38
2023-04-18T19:54:07.886Z,8.23
2023-04-18T19:56:35.602Z,10.85
2023-04-18T19:59:05.755Z,10.35
2023-04-18T20:01:33.836Z,11.85
2023-04-18T20:04:02.009Z,7.55
2023-04-18T20:06:31.655Z,9.25
2023-04-18T20:08:59.295Z,9.75
2023-04-18T20:11:27.191Z,11.32
2023-04-18T20:13:56.469Z,8.75
2023-04-18T20:16:24.863Z,8.55
2023-04-18T20:18:54.875Z,7.70
2023-04-18T20:21:23.097Z,8.80
2023-04-18T20:23:52.109Z,9.18
2023-04-18T20:26:20.086Z,8.40
2023-04-18T20:28:47.758Z,8.38
2023-04-18T20:31:15.570Z,8.30
2023-04-18T20:33:43.626Z,9.23
2023-04-18T20:36:11.301Z,8.23
2023-04-18T20:38:40.424Z,11.38
2023-04-18T20:41:10.681Z,11.07
2023-04-18T20:43:38.720Z,9.77
2023-04-18T20:46:06.858Z,10.60
2023-04-18T20:48:34.956Z,12.38
2023-04-18T20:51:02.600Z,8.65
2023-04-18T20:53:30.593Z,10.70
2023-04-18T20:55:58.280Z,9.07
2023-04-18T20:58:27.307Z,10.82
2023-04-18T21:00:55.393Z,11.10
2023-04-18T21:03:23.276Z,11.15
2023-04-18T21:05:51.464Z,10.65
2023-04-18T21:08:19.264Z,9.82
2023-04-18T21:10:47.253Z,11.07
2023-04-18T21:13:14.870Z,10.32
2023-04-18T21:15:44.028Z,13.20
2023-04-18T21:18:11.754Z,13.13
2023-04-18T21:20:39.787Z,12.60
2023-04-18T21:23:07.782Z,12.13
2023-04-18T21:25:35.382Z,12.35
2023-04-18T21:28:03.027Z,11.88
2023-04-18T21:30:30.968Z,10.18
2023-04-18T21:33:00.028Z,17.02
2023-04-18T21:35:30.054Z,10.13
2023-04-18T21:37:57.957Z,12.52
2023-04-18T21:40:26.772Z,15.25
2023-04-18T21:42:54.432Z,14.13
2023-04-18T21:45:22.345Z,11.95
2023-04-18T21:47:50.865Z,13.85
2023-04-18T21:50:20.201Z,12.05
2023-04-18T21:52:47.901Z,10.65
2023-04-18T21:55:15.908Z,11.25
2023-04-18T21:57:43.630Z,8.48
2023-04-18T22:00:12.772Z,11.48
2023-04-18T22:02:41.059Z,12.30
2023-04-18T22:05:09.103Z,14.18
2023-04-18T22:07:50.101Z,12.00
2023-04-18T22:10:25.182Z,19.77
2023-04-18T22:12:53.974Z,13.35
2023-04-18T22:15:21.991Z,10.65
2023-04-18T22:17:50.355Z,10.35
2023-04-18T22:20:18.417Z,12.95
2023-04-18T22:22:47.592Z,10.40
2023-04-18T22:25:15.378Z,11.93
2023-04-18T22:27:43.560Z,10.82
2023-04-18T22:30:12.498Z,12.15
2023-04-18T22:32:41.588Z,10.80
2023-04-18T22:35:10.240Z,12.15
2023-04-18T22:37:39.234Z,10.32
2023-04-18T22:40:09.905Z,9.15
2023-04-18T22:42:38.815Z,9.68
2023-04-18T22:45:08.483Z,9.27
2023-04-18T22:47:36.371Z,16.73
2023-04-18T22:50:04.432Z,9.38
2023-04-18T22:52:32.074Z,11.88
2023-04-18T22:54:59.722Z,11.25
2023-04-18T22:57:29.986Z,10.15
2023-04-18T22:59:57.811Z,12.20
2023-04-18T23:02:25.677Z,8.70
2023-04-18T23:04:54.115Z,10.23
2023-04-18T23:07:21.848Z,9.80
2023-04-18T23:09:49.505Z,11.48
2023-04-18T23:12:17.580Z,7.20
2023-04-18T23:14:46.525Z,13.55
2023-04-18T23:17:14.207Z,10.07
2023-04-18T23:19:42.143Z,9.00
2023-04-18T23:22:09.848Z,8.77
2023-04-18T23:24:37.746Z,8.38
2023-04-18T23:27:05.824Z,12.20
2023-04-18T23:29:38.871Z,12.85
2023-04-18T23:32:08.100Z,13.40
2023-04-18T23:34:36.241Z,8.80
2023-04-18T23:37:03.964Z,8.88
2023-04-18T23:39:32.065Z,10.43
2023-04-18T23:41:59.727Z,10.10
2023-04-18T23:44:27.677Z,11.73
2023-04-18T23:46:55.494Z,9.02
2023-04-18T23:49:24.818Z,8.63
2023-04-18T23:51:52.463Z,7.40
2023-04-18T23:54:20.408Z,10.75
2023-04-18T23:56:48.084Z,7.97
2023-04-18T23:59:16.474Z,8.30
